M/T Arcadia — SY7849 — position and weather

sailwx.info

Track history (hours):
 
Tides and Currents Weather Stations Pressure Air Temp Water Temp Dewpoint Dewpoint Depression Visibility Wind Speed Wind Dir Waves Ship Positions

M/T Arcadia

Last reported at 2015-Jan-30 22:32 UTC. Time now 2015-Jan-30 23:23 UTC.
Position N 37°47' E 023°32'.

Length 76 m; draft 4.4 m.

Type: Ship. MMSI: 240560000.

Date/timePositionNaut miles runAvg speedWind from/ knotsBaromVisibWave heightAir tempDewpointWater temp
2015-Jan-30 22:32N 37°47' E 023°32'0 0.0
2015-Jan-30 21:23N 37°47' E 023°32'0 0.0
2015-Jan-30 20:32N 37°47' E 023°32'0 0.0
2015-Jan-30 19:32N 37°47' E 023°32'0 0.5
2015-Jan-30 18:33N 37°47' E 023°32'4 4.3
2015-Jan-30 17:33N 37°51' E 023°33'7 7.4
2015-Jan-30 16:33N 37°51' E 023°23'12 0.4
2015-Jan-29 07:16N 37°39' E 023°24'6 8.7
2015-Jan-29 06:33N 37°36' E 023°31'8 8.1
2015-Jan-29 05:32N 37°29' E 023°36'  
2015-Jan-26 14:10N 37°31' E 023°34'21 0.7
2015-Jan-25 08:32N 37°51' E 023°27'6 6.6
2015-Jan-25 07:33N 37°54' E 023°34'4 3.9
2015-Jan-25 06:33N 37°57' E 023°35'0 0.0
2015-Jan-25 05:23N 37°57' E 023°35'0 0.0
2015-Jan-25 04:30N 37°57' E 023°35'0 0.0
2015-Jan-25 03:23N 37°57' E 023°35'0 0.0
2015-Jan-25 02:03N 37°57' E 023°35'0 0.0
2015-Jan-25 01:33N 37°57' E 023°35'0 0.0
2015-Jan-25 00:33N 37°57' E 023°35'0 0.0
2015-Jan-24 23:33N 37°57' E 023°35'0 0.0
2015-Jan-24 22:33N 37°57' E 023°35'0 0.0
2015-Jan-24 21:33N 37°57' E 023°35'0 0.0
2015-Jan-24 20:33N 37°57' E 023°35'0 0.0
2015-Jan-24 19:33N 37°57' E 023°35'0 0.0
2015-Jan-24 18:33N 37°57' E 023°35'0 0.0
2015-Jan-24 17:33N 37°57' E 023°35'0 0.0
2015-Jan-24 16:33N 37°57' E 023°35'0 0.0
2015-Jan-24 15:33N 37°57' E 023°35'0 0.0
2015-Jan-24 14:33N 37°57' E 023°35'6 5.9
2015-Jan-24 13:33N 37°52' E 023°33'7 7.0
2015-Jan-24 12:33N 37°51' E 023°24'11 0.6
2015-Jan-23 17:30N 37°41' E 023°18'10 8.0
2015-Jan-23 16:15N 37°38' E 023°30'6 8.4
2015-Jan-23 15:33N 37°33' E 023°34'8 8.1
2015-Jan-23 14:32N 37°25' E 023°32'9 8.8
2015-Jan-23 13:33N 37°20' E 023°23'97 5.9
2015-Jan-22 21:04N 35°46' E 023°55'15 9.0
2015-Jan-22 19:27N 35°33' E 024°03'2 0.2
2015-Jan-22 04:32N 35°36' E 024°02'8 7.9
2015-Jan-22 03:32N 35°43' E 024°00'7 7.7
2015-Jan-22 02:33N 35°51' E 023°59'95 7.8
2015-Jan-21 14:27N 37°24' E 023°35'7 8.2
2015-Jan-21 13:33N 37°31' E 023°34'7 7.3
2015-Jan-21 12:33N 37°38' E 023°30'8 7.9
2015-Jan-21 11:30N 37°40' E 023°20'  
Track history (hours):
 
Tides and Currents Weather Stations Pressure Air Temp Water Temp Dewpoint Dewpoint Depression Visibility Wind Speed Wind Dir Waves Ship Positions

M/T Arcadia

Last reported at 2015-Jan-30 22:32 UTC. Time now 2015-Jan-30 23:23 UTC.
Position N 37°47' E 023°32'.

Length 76 m; draft 4.4 m.

Type: Ship. MMSI: 240560000.

Date/timePositionNaut miles runAvg speedWind from/ knotsBaromVisibWave heightAir tempDewpointWater temp
2015-Jan-30 22:32N 37°47' E 023°32'0 0.0
2015-Jan-30 21:23N 37°47' E 023°32'0 0.0
2015-Jan-30 20:32N 37°47' E 023°32'0 0.0
2015-Jan-30 19:32N 37°47' E 023°32'0 0.5
2015-Jan-30 18:33N 37°47' E 023°32'4 4.3
2015-Jan-30 17:33N 37°51' E 023°33'7 7.4
2015-Jan-30 16:33N 37°51' E 023°23'12 0.4
2015-Jan-29 07:16N 37°39' E 023°24'6 8.7
2015-Jan-29 06:33N 37°36' E 023°31'8 8.1
2015-Jan-29 05:32N 37°29' E 023°36'  
2015-Jan-26 14:10N 37°31' E 023°34'21 0.7
2015-Jan-25 08:32N 37°51' E 023°27'6 6.6
2015-Jan-25 07:33N 37°54' E 023°34'4 3.9
2015-Jan-25 06:33N 37°57' E 023°35'0 0.0
2015-Jan-25 05:23N 37°57' E 023°35'0 0.0
2015-Jan-25 04:30N 37°57' E 023°35'0 0.0
2015-Jan-25 03:23N 37°57' E 023°35'0 0.0
2015-Jan-25 02:03N 37°57' E 023°35'0 0.0
2015-Jan-25 01:33N 37°57' E 023°35'0 0.0
2015-Jan-25 00:33N 37°57' E 023°35'0 0.0
2015-Jan-24 23:33N 37°57' E 023°35'0 0.0
2015-Jan-24 22:33N 37°57' E 023°35'0 0.0
2015-Jan-24 21:33N 37°57' E 023°35'0 0.0
2015-Jan-24 20:33N 37°57' E 023°35'0 0.0
2015-Jan-24 19:33N 37°57' E 023°35'0 0.0
2015-Jan-24 18:33N 37°57' E 023°35'0 0.0
2015-Jan-24 17:33N 37°57' E 023°35'0 0.0
2015-Jan-24 16:33N 37°57' E 023°35'0 0.0
2015-Jan-24 15:33N 37°57' E 023°35'0 0.0
2015-Jan-24 14:33N 37°57' E 023°35'6 5.9
2015-Jan-24 13:33N 37°52' E 023°33'7 7.0
2015-Jan-24 12:33N 37°51' E 023°24'11 0.6
2015-Jan-23 17:30N 37°41' E 023°18'10 8.0
2015-Jan-23 16:15N 37°38' E 023°30'6 8.4
2015-Jan-23 15:33N 37°33' E 023°34'8 8.1
2015-Jan-23 14:32N 37°25' E 023°32'9 8.8
2015-Jan-23 13:33N 37°20' E 023°23'97 5.9
2015-Jan-22 21:04N 35°46' E 023°55'15 9.0
2015-Jan-22 19:27N 35°33' E 024°03'2 0.2
2015-Jan-22 04:32N 35°36' E 024°02'8 7.9
2015-Jan-22 03:32N 35°43' E 024°00'7 7.7
2015-Jan-22 02:33N 35°51' E 023°59'95 7.8
2015-Jan-21 14:27N 37°24' E 023°35'7 8.2
2015-Jan-21 13:33N 37°31' E 023°34'7 7.3
2015-Jan-21 12:33N 37°38' E 023°30'8 7.9
2015-Jan-21 11:30N 37°40' E 023°20'  

Dump ship's entire track history